createdAt,value
2023-02-18T00:00:29.599Z,7.10
2023-02-18T00:02:56.492Z,7.10
2023-02-18T00:05:23.381Z,7.20
2023-02-18T00:07:50.285Z,7.20
2023-02-18T00:10:17.375Z,7.20
2023-02-18T00:12:44.992Z,7.30
2023-02-18T00:15:12.442Z,7.30
2023-02-18T00:17:39.489Z,7.40
2023-02-18T00:20:07.367Z,7.40
2023-02-18T00:22:34.391Z,7.40
2023-02-18T00:25:01.283Z,7.40
2023-02-18T00:27:28.127Z,7.50
2023-02-18T00:29:55.046Z,7.50
2023-02-18T00:32:22.262Z,7.50
2023-02-18T00:34:49.237Z,7.50
2023-02-18T00:37:16.109Z,7.60
2023-02-18T00:39:44.232Z,7.60
2023-02-18T00:42:11.184Z,7.60
2023-02-18T00:44:38.007Z,7.60
2023-02-18T00:47:04.992Z,7.50
2023-02-18T00:49:31.962Z,7.50
2023-02-18T00:51:58.828Z,7.50
2023-02-18T00:54:25.700Z,7.50
2023-02-18T00:56:52.573Z,7.40
2023-02-18T00:59:19.441Z,7.40
2023-02-18T01:01:46.947Z,7.40
2023-02-18T01:04:13.847Z,7.40
2023-02-18T01:06:40.858Z,7.40
2023-02-18T01:09:07.815Z,7.50
2023-02-18T01:11:34.938Z,7.50
2023-02-18T01:14:02.195Z,7.50
2023-02-18T01:16:29.175Z,7.50
2023-02-18T01:18:56.077Z,7.50
2023-02-18T01:21:22.930Z,7.60
2023-02-18T01:23:49.853Z,7.50
2023-02-18T01:26:16.742Z,7.50
2023-02-18T01:28:43.631Z,7.60
2023-02-18T01:31:13.706Z,7.60
2023-02-18T01:33:41.144Z,7.70
2023-02-18T01:36:09.183Z,7.70
2023-02-18T01:38:36.462Z,7.70
2023-02-18T01:41:03.478Z,7.80
2023-02-18T01:43:30.964Z,7.80
2023-02-18T01:46:03.284Z,7.80
2023-02-18T01:48:43.981Z,7.90
2023-02-18T01:51:16.413Z,7.90
2023-02-18T01:53:59.043Z,7.90
2023-02-18T01:57:00.100Z,7.90
2023-02-18T02:00:04.862Z,7.90
2023-02-18T02:02:35.691Z,7.90
2023-02-18T02:05:02.638Z,8.00
2023-02-18T02:07:30.089Z,7.90
2023-02-18T02:09:59.022Z,8.00
2023-02-18T02:12:40.875Z,8.00
2023-02-18T02:15:40.217Z,8.00
2023-02-18T02:18:31.249Z,8.00
2023-02-18T02:21:06.898Z,8.00
2023-02-18T02:23:33.689Z,8.00
2023-02-18T02:26:00.455Z,8.10
2023-02-18T02:29:04.738Z,8.10
2023-02-18T02:31:56.794Z,8.10
2023-02-18T02:34:32.886Z,8.10
2023-02-18T02:37:16.864Z,8.10
2023-02-18T02:40:04.892Z,8.10
2023-02-18T02:43:06.470Z,8.20
2023-02-18T02:45:55.947Z,8.20
2023-02-18T02:49:00.400Z,8.20
2023-02-18T02:51:46.906Z,8.20
2023-02-18T02:54:19.003Z,8.30
2023-02-18T02:56:45.920Z,8.20
2023-02-18T02:59:26.283Z,8.30
2023-02-18T03:02:05.077Z,8.20
2023-02-18T03:04:53.293Z,8.20
2023-02-18T03:07:27.623Z,8.30
2023-02-18T03:10:48.484Z,8.30
2023-02-18T03:13:34.407Z,8.30
2023-02-18T03:16:27.716Z,8.30
2023-02-18T03:19:03.742Z,8.30
2023-02-18T03:21:44.706Z,8.30
2023-02-18T03:24:34.108Z,8.30
2023-02-18T03:27:33.579Z,8.40
2023-02-18T03:30:18.122Z,8.40
2023-02-18T03:32:47.876Z,8.40
2023-02-18T03:35:18.465Z,8.50
2023-02-18T03:37:54.229Z,8.40
2023-02-18T03:40:21.485Z,8.50
2023-02-18T03:42:48.315Z,8.50
2023-02-18T03:45:15.068Z,8.60
2023-02-18T03:47:41.958Z,8.60
2023-02-18T03:50:09.223Z,8.60
2023-02-18T03:52:36.763Z,8.70
2023-02-18T03:55:09.233Z,8.70
2023-02-18T03:57:36.121Z,8.70
2023-02-18T04:00:05.628Z,8.70
2023-02-18T04:02:32.842Z,8.70
2023-02-18T04:04:59.771Z,8.80
2023-02-18T04:07:26.827Z,8.80
2023-02-18T04:09:53.611Z,8.80
2023-02-18T04:12:20.777Z,8.80
2023-02-18T04:14:47.685Z,8.80
2023-02-18T04:17:14.563Z,8.80
2023-02-18T04:19:41.402Z,8.80
2023-02-18T04:22:08.198Z,8.80
2023-02-18T04:24:34.964Z,8.90
2023-02-18T04:27:01.812Z,8.80
2023-02-18T04:29:28.760Z,8.80
2023-02-18T04:31:55.602Z,8.80
2023-02-18T04:34:22.573Z,8.80
2023-02-18T04:36:49.420Z,8.90
2023-02-18T04:39:16.267Z,8.90
2023-02-18T04:41:46.131Z,9.00
2023-02-18T04:44:12.999Z,8.90
2023-02-18T04:46:39.850Z,9.00
2023-02-18T04:49:06.657Z,9.00
2023-02-18T04:51:33.458Z,9.00
2023-02-18T04:54:00.266Z,9.00
2023-02-18T04:56:27.070Z,9.00
2023-02-18T04:58:53.898Z,9.10
2023-02-18T05:01:20.765Z,9.10
2023-02-18T05:03:47.785Z,9.10
2023-02-18T05:06:14.714Z,9.10
2023-02-18T05:08:41.600Z,9.10
2023-02-18T05:11:09.499Z,9.10
2023-02-18T05:13:36.368Z,9.10
2023-02-18T05:16:03.369Z,9.00
2023-02-18T05:18:30.281Z,9.10
2023-02-18T05:20:57.150Z,9.00
2023-02-18T05:23:25.794Z,9.00
2023-02-18T05:25:52.729Z,9.00
2023-02-18T05:28:19.659Z,9.00
2023-02-18T05:30:46.585Z,9.00
2023-02-18T05:33:13.464Z,9.00
2023-02-18T05:35:40.317Z,9.00
2023-02-18T05:38:07.200Z,9.00
2023-02-18T05:40:34.013Z,9.00
2023-02-18T05:43:00.793Z,9.00
2023-02-18T05:45:27.653Z,9.00
2023-02-18T05:47:54.511Z,9.00
2023-02-18T05:50:21.619Z,9.00
2023-02-18T05:52:48.422Z,8.90
2023-02-18T05:55:15.251Z,8.90
2023-02-18T05:57:42.101Z,9.00
2023-02-18T06:00:10.238Z,9.00
2023-02-18T06:02:38.195Z,8.90
2023-02-18T06:05:06.306Z,9.00
2023-02-18T06:07:33.203Z,9.00
2023-02-18T06:10:00.040Z,9.00
2023-02-18T06:12:27.018Z,9.00
2023-02-18T06:14:53.818Z,9.00
2023-02-18T06:17:22.645Z,9.00
2023-02-18T06:19:49.725Z,9.00
2023-02-18T06:22:16.729Z,9.00
2023-02-18T06:24:43.609Z,9.00
2023-02-18T06:27:10.712Z,9.00
2023-02-18T06:29:37.992Z,9.10
2023-02-18T06:32:05.050Z,9.10
2023-02-18T06:34:31.942Z,9.10
2023-02-18T06:37:01.219Z,9.10
2023-02-18T06:39:28.407Z,9.10
2023-02-18T06:41:55.254Z,9.10
2023-02-18T06:44:22.107Z,9.20
2023-02-18T06:46:49.051Z,9.20
2023-02-18T06:49:15.887Z,9.20
2023-02-18T06:51:42.707Z,9.20
2023-02-18T06:54:09.616Z,9.30
2023-02-18T06:56:36.437Z,9.30
2023-02-18T06:59:03.358Z,9.30
2023-02-18T07:01:30.226Z,9.30
2023-02-18T07:03:57.211Z,9.30
2023-02-18T07:06:24.129Z,9.30
2023-02-18T07:08:51.045Z,9.30
2023-02-18T07:11:18.184Z,9.40
2023-02-18T07:13:45.045Z,9.40
2023-02-18T07:16:12.299Z,9.40
2023-02-18T07:18:39.521Z,9.40
2023-02-18T07:21:06.415Z,9.40
2023-02-18T07:23:33.377Z,9.50
2023-02-18T07:26:05.716Z,9.50
2023-02-18T07:28:32.744Z,9.50
2023-02-18T07:30:59.628Z,9.50
2023-02-18T07:33:26.489Z,9.50
2023-02-18T07:35:54.932Z,9.50
2023-02-18T07:38:23.501Z,9.60
2023-02-18T07:40:50.544Z,9.60
2023-02-18T07:43:17.898Z,9.60
2023-02-18T07:45:46.484Z,9.60
2023-02-18T07:48:13.470Z,9.60
2023-02-18T07:50:41.845Z,9.60
2023-02-18T07:53:08.945Z,9.60
2023-02-18T07:55:51.787Z,9.70
2023-02-18T07:58:28.264Z,9.70
2023-02-18T08:00:59.262Z,9.70
2023-02-18T08:03:30.870Z,9.70
2023-02-18T08:05:58.308Z,9.70
2023-02-18T08:08:27.932Z,9.70
2023-02-18T08:11:01.027Z,9.60
2023-02-18T08:13:30.396Z,9.60
2023-02-18T08:15:58.241Z,9.60
2023-02-18T08:18:26.326Z,9.60
2023-02-18T08:20:53.246Z,9.60
2023-02-18T08:23:23.233Z,9.70
2023-02-18T08:25:51.864Z,9.70
2023-02-18T08:28:20.293Z,9.70
2023-02-18T08:30:48.758Z,9.70
2023-02-18T08:33:16.026Z,9.70
2023-02-18T08:35:43.891Z,9.70
2023-02-18T08:38:10.819Z,9.80
2023-02-18T08:40:37.867Z,9.80
2023-02-18T08:43:04.786Z,9.80
2023-02-18T08:45:31.671Z,9.80
2023-02-18T08:48:18.110Z,9.80
2023-02-18T08:50:45.404Z,9.80
2023-02-18T08:53:12.391Z,9.80
2023-02-18T08:55:40.973Z,9.90
2023-02-18T08:58:07.987Z,9.90
2023-02-18T09:00:35.269Z,9.90
2023-02-18T09:03:02.303Z,9.90
2023-02-18T09:05:29.239Z,9.80
2023-02-18T09:07:56.194Z,9.80
2023-02-18T09:10:23.612Z,9.80
2023-02-18T09:12:50.639Z,9.80
2023-02-18T09:15:17.685Z,9.80
2023-02-18T09:17:45.815Z,9.80
2023-02-18T09:20:13.545Z,9.70
2023-02-18T09:22:40.736Z,9.80
2023-02-18T09:25:07.871Z,9.80
2023-02-18T09:27:34.804Z,9.70
2023-02-18T09:30:01.799Z,9.80
2023-02-18T09:32:34.764Z,9.80
2023-02-18T09:35:05.586Z,9.80
2023-02-18T09:37:32.484Z,9.80
2023-02-18T09:40:00.140Z,9.80
2023-02-18T09:42:35.059Z,9.80
2023-02-18T09:45:06.997Z,9.70
2023-02-18T09:47:39.179Z,9.80
2023-02-18T09:50:29.598Z,9.70
2023-02-18T09:52:59.116Z,9.70
2023-02-18T09:55:32.773Z,9.70
2023-02-18T09:58:12.204Z,9.60
2023-02-18T10:00:48.671Z,9.60
2023-02-18T10:03:21.663Z,9.60
2023-02-18T10:05:59.270Z,9.70
2023-02-18T10:08:29.501Z,9.60
2023-02-18T10:10:56.745Z,9.60
2023-02-18T10:13:28.543Z,9.60
2023-02-18T10:16:01.449Z,9.60
2023-02-18T10:18:35.797Z,9.60
2023-02-18T10:21:26.619Z,9.60
2023-02-18T10:24:27.268Z,9.70
2023-02-18T10:27:06.281Z,9.60
2023-02-18T10:29:33.348Z,9.60
2023-02-18T10:32:23.012Z,9.60
2023-02-18T10:35:17.895Z,9.60
2023-02-18T10:37:59.374Z,9.60
2023-02-18T10:40:38.850Z,9.50
2023-02-18T10:43:30.955Z,9.50
2023-02-18T10:46:13.842Z,9.50
2023-02-18T10:48:59.452Z,9.50
2023-02-18T10:51:35.610Z,9.60
2023-02-18T10:54:02.648Z,9.60
2023-02-18T10:56:39.745Z,9.70
2023-02-18T10:59:24.530Z,9.80
2023-02-18T11:01:57.620Z,9.80
2023-02-18T11:04:39.420Z,9.90
2023-02-18T11:07:16.397Z,10.00
2023-02-18T11:09:49.175Z,9.90
2023-02-18T11:12:23.303Z,9.90
2023-02-18T11:15:16.409Z,9.90
2023-02-18T11:17:46.362Z,9.90
2023-02-18T11:20:19.211Z,10.00
2023-02-18T11:22:46.126Z,10.00
2023-02-18T11:25:22.667Z,10.00
2023-02-18T11:27:55.355Z,10.00
2023-02-18T11:30:34.712Z,10.00
2023-02-18T11:33:09.567Z,10.00
2023-02-18T11:35:37.255Z,10.00
2023-02-18T11:38:24.308Z,10.10
2023-02-18T11:40:57.832Z,10.20
2023-02-18T11:43:29.321Z,10.20
2023-02-18T11:46:21.263Z,10.30
2023-02-18T11:48:48.737Z,10.30
2023-02-18T11:51:38.140Z,10.40
2023-02-18T11:54:25.694Z,10.40
2023-02-18T11:57:02.162Z,10.50
2023-02-18T11:59:34.617Z,10.50
2023-02-18T12:02:09.851Z,10.60
2023-02-18T12:05:03.349Z,10.60
2023-02-18T12:07:35.274Z,10.60
2023-02-18T12:10:23.471Z,10.80
2023-02-18T12:12:59.804Z,10.80
2023-02-18T12:15:49.610Z,10.80
2023-02-18T12:18:35.344Z,10.90
2023-02-18T12:21:29.659Z,10.90
2023-02-18T12:24:41.276Z,11.00
2023-02-18T12:27:11.628Z,11.20
2023-02-18T12:29:47.384Z,11.20
2023-02-18T12:32:32.825Z,11.20
2023-02-18T12:35:23.672Z,11.20
2023-02-18T12:38:02.404Z,11.20
2023-02-18T12:40:51.798Z,11.20
2023-02-18T12:43:42.012Z,11.20
2023-02-18T12:46:33.243Z,11.10
2023-02-18T12:49:15.164Z,11.00
2023-02-18T12:52:00.159Z,11.00
2023-02-18T12:54:56.919Z,11.00
2023-02-18T12:57:41.026Z,11.00
2023-02-18T13:00:25.181Z,11.00
2023-02-18T13:03:23.878Z,11.10
2023-02-18T13:06:13.539Z,11.20
2023-02-18T13:09:05.066Z,11.20
2023-02-18T13:11:37.898Z,11.20
2023-02-18T13:14:10.136Z,11.30
2023-02-18T13:16:39.639Z,11.30
2023-02-18T13:19:20.338Z,11.30
2023-02-18T13:21:50.804Z,11.30
2023-02-18T13:24:37.355Z,11.30
2023-02-18T13:27:16.366Z,11.30
2023-02-18T13:30:11.188Z,11.40
2023-02-18T13:32:46.239Z,11.40
2023-02-18T13:35:34.793Z,11.40
2023-02-18T13:38:36.100Z,11.40
2023-02-18T13:41:04.052Z,11.40
2023-02-18T13:43:35.962Z,11.50
2023-02-18T13:46:23.209Z,11.50
2023-02-18T13:48:53.394Z,11.50
2023-02-18T13:51:31.895Z,11.60
2023-02-18T13:54:05.066Z,11.60
2023-02-18T13:56:35.703Z,11.70
2023-02-18T13:59:16.629Z,11.70
2023-02-18T14:01:45.821Z,11.70
2023-02-18T14:04:44.086Z,11.60
2023-02-18T14:07:36.256Z,11.60
2023-02-18T14:10:16.425Z,11.60
2023-02-18T14:12:56.253Z,11.50
2023-02-18T14:15:23.097Z,11.50
2023-02-18T14:17:59.079Z,11.50
2023-02-18T14:20:36.812Z,11.40
2023-02-18T14:23:18.578Z,11.40
2023-02-18T14:26:13.015Z,11.40
2023-02-18T14:28:44.936Z,11.30
2023-02-18T14:31:41.886Z,11.30
2023-02-18T14:34:24.198Z,11.30
2023-02-18T14:37:00.001Z,11.30
2023-02-18T14:40:00.316Z,11.30
2023-02-18T14:42:54.920Z,11.30
2023-02-18T14:46:00.205Z,11.40
2023-02-18T14:48:38.558Z,11.40
2023-02-18T14:51:06.055Z,11.30
2023-02-18T14:53:36.442Z,11.30
2023-02-18T14:56:05.790Z,11.20
2023-02-18T14:58:37.285Z,11.20
2023-02-18T15:01:25.461Z,11.20
2023-02-18T15:03:54.709Z,11.20
2023-02-18T15:06:39.869Z,11.10
2023-02-18T15:09:14.220Z,11.10
2023-02-18T15:11:52.007Z,11.00
2023-02-18T15:14:23.442Z,11.00
2023-02-18T15:16:51.185Z,11.00
2023-02-18T15:19:21.362Z,11.00
2023-02-18T15:21:50.514Z,11.00
2023-02-18T15:24:31.047Z,11.00
2023-02-18T15:27:18.189Z,11.00
2023-02-18T15:29:49.044Z,11.00
2023-02-18T15:32:27.339Z,10.90
2023-02-18T15:34:58.087Z,10.90
2023-02-18T15:37:25.018Z,10.90
2023-02-18T15:39:51.820Z,10.80
2023-02-18T15:42:33.190Z,10.80
2023-02-18T15:45:19.960Z,10.70
2023-02-18T15:47:50.139Z,10.70
2023-02-18T15:50:51.083Z,10.70
2023-02-18T15:53:20.919Z,10.70
2023-02-18T15:55:50.818Z,10.60
2023-02-18T15:58:32.796Z,10.60
2023-02-18T16:01:06.049Z,10.60
2023-02-18T16:03:46.281Z,10.60
2023-02-18T16:06:23.848Z,10.50
2023-02-18T16:09:01.662Z,10.50
2023-02-18T16:11:35.618Z,10.50
2023-02-18T16:14:02.682Z,10.40
2023-02-18T16:16:33.511Z,10.40
2023-02-18T16:19:01.740Z,10.40
2023-02-18T16:21:44.077Z,10.40
2023-02-18T16:24:26.585Z,10.40
2023-02-18T16:26:56.797Z,10.30
2023-02-18T16:29:40.303Z,10.30
2023-02-18T16:32:07.371Z,10.30
2023-02-18T16:34:35.748Z,10.30
2023-02-18T16:37:21.435Z,10.30
2023-02-18T16:39:52.052Z,10.20
2023-02-18T16:42:19.449Z,10.20
2023-02-18T16:44:48.352Z,10.10
2023-02-18T16:47:19.681Z,10.10
2023-02-18T16:49:49.508Z,10.10
2023-02-18T16:52:18.014Z,10.10
2023-02-18T16:54:44.913Z,10.10
2023-02-18T16:57:11.826Z,10.10
2023-02-18T16:59:38.821Z,10.00
2023-02-18T17:02:13.324Z,10.00
2023-02-18T17:04:40.633Z,10.00
2023-02-18T17:07:11.117Z,9.90
2023-02-18T17:09:38.420Z,9.90
2023-02-18T17:12:05.461Z,9.90
2023-02-18T17:14:33.624Z,9.90
2023-02-18T17:17:00.536Z,9.80
2023-02-18T17:19:27.409Z,9.80
2023-02-18T17:21:54.378Z,9.80
2023-02-18T17:24:21.310Z,9.80
2023-02-18T17:26:48.143Z,9.80
2023-02-18T17:29:15.520Z,9.80
2023-02-18T17:31:46.953Z,9.80
2023-02-18T17:34:28.685Z,9.80
2023-02-18T17:36:55.529Z,9.80
2023-02-18T17:39:23.533Z,9.80
2023-02-18T17:41:50.511Z,9.80
2023-02-18T17:44:23.687Z,9.80
2023-02-18T17:46:50.994Z,9.80
2023-02-18T17:49:18.055Z,9.80
2023-02-18T17:51:44.997Z,9.80
2023-02-18T17:54:13.479Z,9.70
2023-02-18T17:56:40.753Z,9.70
2023-02-18T17:59:07.555Z,9.70
2023-02-18T18:01:34.683Z,9.70
2023-02-18T18:04:01.648Z,9.70
2023-02-18T18:06:28.649Z,9.70
2023-02-18T18:08:55.513Z,9.60
2023-02-18T18:11:24.789Z,9.60
2023-02-18T18:13:53.025Z,9.60
2023-02-18T18:16:21.417Z,9.70
2023-02-18T18:18:48.498Z,9.60
2023-02-18T18:21:30.996Z,9.60
2023-02-18T18:23:57.924Z,9.60
2023-02-18T18:26:25.072Z,9.60
2023-02-18T18:28:52.033Z,9.60
2023-02-18T18:31:20.051Z,9.60
2023-02-18T18:33:50.406Z,9.60
2023-02-18T18:36:19.645Z,9.50
2023-02-18T18:38:46.960Z,9.50
2023-02-18T18:41:19.335Z,9.50
2023-02-18T18:43:46.648Z,9.50
2023-02-18T18:46:13.904Z,9.50
2023-02-18T18:48:40.956Z,9.50
2023-02-18T18:51:10.098Z,9.50
2023-02-18T18:53:37.355Z,9.50
2023-02-18T18:56:06.653Z,9.50
2023-02-18T18:58:33.800Z,9.50
2023-02-18T19:01:03.978Z,9.50
2023-02-18T19:03:34.048Z,9.50
2023-02-18T19:06:01.055Z,9.60
2023-02-18T19:08:27.953Z,9.50
2023-02-18T19:10:57.396Z,9.60
2023-02-18T19:13:29.742Z,9.50
2023-02-18T19:16:26.521Z,9.50
2023-02-18T19:18:54.225Z,9.50
2023-02-18T19:21:21.270Z,9.50
2023-02-18T19:23:48.110Z,9.50
2023-02-18T19:26:16.846Z,9.50
2023-02-18T19:28:44.755Z,9.50
2023-02-18T19:31:12.012Z,9.50
2023-02-18T19:33:39.517Z,9.50
2023-02-18T19:36:08.930Z,9.50
2023-02-18T19:38:35.889Z,9.40
2023-02-18T19:41:12.362Z,9.40
2023-02-18T19:43:44.267Z,9.40
2023-02-18T19:46:16.479Z,9.40
2023-02-18T19:48:47.701Z,9.30
2023-02-18T19:51:14.579Z,9.20
2023-02-18T19:53:41.371Z,9.20
2023-02-18T19:56:08.513Z,9.20
2023-02-18T19:58:36.318Z,9.20
2023-02-18T20:01:03.719Z,9.20
2023-02-18T20:03:30.591Z,9.20
2023-02-18T20:05:57.493Z,9.30
2023-02-18T20:08:24.309Z,9.30
2023-02-18T20:10:58.945Z,9.30
2023-02-18T20:13:26.153Z,9.30
2023-02-18T20:15:53.033Z,9.30
2023-02-18T20:18:19.854Z,9.30
2023-02-18T20:20:51.061Z,9.30
2023-02-18T20:23:18.523Z,9.30
2023-02-18T20:25:47.595Z,9.30
2023-02-18T20:28:14.943Z,9.30
2023-02-18T20:30:41.954Z,9.30
2023-02-18T20:33:08.827Z,9.30
2023-02-18T20:35:35.623Z,9.30
2023-02-18T20:38:02.526Z,9.20
2023-02-18T20:40:29.419Z,9.30
2023-02-18T20:42:56.732Z,9.20
2023-02-18T20:45:23.739Z,9.20
2023-02-18T20:47:50.668Z,9.20
2023-02-18T20:50:17.623Z,9.20
2023-02-18T20:52:44.527Z,9.20
2023-02-18T20:55:11.584Z,9.20
2023-02-18T20:57:38.398Z,9.20
2023-02-18T21:00:05.931Z,9.20
2023-02-18T21:02:32.938Z,9.20
2023-02-18T21:04:59.774Z,9.20
2023-02-18T21:07:26.549Z,9.20
2023-02-18T21:09:53.403Z,9.20
2023-02-18T21:12:20.299Z,9.10
2023-02-18T21:14:47.148Z,9.10
2023-02-18T21:17:14.072Z,9.10
2023-02-18T21:19:41.245Z,9.10
2023-02-18T21:22:08.088Z,9.10
2023-02-18T21:24:35.026Z,9.10
2023-02-18T21:27:01.868Z,9.00
2023-02-18T21:29:29.231Z,9.10
2023-02-18T21:31:56.273Z,9.10
2023-02-18T21:34:23.193Z,9.10
2023-02-18T21:36:50.088Z,9.00
2023-02-18T21:39:17.075Z,9.00
2023-02-18T21:41:44.030Z,9.00
2023-02-18T21:44:10.944Z,9.00
2023-02-18T21:46:39.196Z,9.00
2023-02-18T21:49:06.484Z,9.10
2023-02-18T21:51:54.474Z,9.00
2023-02-18T21:54:42.064Z,9.00
2023-02-18T21:57:17.904Z,9.00
2023-02-18T21:59:47.817Z,9.00
2023-02-18T22:02:23.204Z,9.00
2023-02-18T22:04:51.159Z,9.00
2023-02-18T22:07:18.816Z,9.00
2023-02-18T22:09:48.358Z,9.00
2023-02-18T22:12:16.481Z,9.00
2023-02-18T22:14:44.022Z,9.10
2023-02-18T22:17:11.145Z,9.10
2023-02-18T22:19:38.019Z,9.10
2023-02-18T22:22:05.160Z,9.10
2023-02-18T22:24:32.139Z,9.10
2023-02-18T22:27:02.712Z,9.10
2023-02-18T22:29:31.446Z,9.10
2023-02-18T22:31:58.432Z,9.10
2023-02-18T22:34:25.347Z,9.10
2023-02-18T22:36:52.181Z,9.10
2023-02-18T22:39:19.376Z,9.10
2023-02-18T22:41:46.519Z,9.10
2023-02-18T22:44:15.352Z,9.10
2023-02-18T22:46:42.390Z,9.20
2023-02-18T22:49:09.490Z,9.20
2023-02-18T22:51:39.232Z,9.10
2023-02-18T22:54:10.618Z,9.20
2023-02-18T22:56:37.549Z,9.20
2023-02-18T22:59:04.513Z,9.20
2023-02-18T23:01:38.896Z,9.10
2023-02-18T23:04:09.863Z,9.20
2023-02-18T23:06:38.278Z,9.20
2023-02-18T23:09:06.505Z,9.20
2023-02-18T23:11:34.141Z,9.20
2023-02-18T23:14:19.496Z,9.20
2023-02-18T23:17:10.456Z,9.20
2023-02-18T23:19:37.453Z,9.20
2023-02-18T23:22:05.163Z,9.20
2023-02-18T23:24:37.383Z,9.20
2023-02-18T23:27:04.949Z,9.10
2023-02-18T23:29:31.825Z,9.10
2023-02-18T23:31:58.743Z,9.10
2023-02-18T23:34:25.615Z,9.10
2023-02-18T23:36:52.584Z,9.10
2023-02-18T23:39:22.934Z,9.10
2023-02-18T23:41:50.736Z,9.10
2023-02-18T23:44:20.401Z,9.10
2023-02-18T23:46:47.540Z,9.00
2023-02-18T23:49:19.635Z,9.00
2023-02-18T23:51:46.444Z,9.00
2023-02-18T23:54:13.322Z,9.00
2023-02-18T23:56:40.682Z,9.00
2023-02-18T23:59:07.661Z,8.90
